Terminal Aerodrome Forecast
Issued by NWS Billings, MT

Home | Current Version | Previous Version | Graphics & Text | Print | Product List | Glossary On
Versions: 1 2 3 4 5 6 7 8 9 10 11 12 13 14 15 16 17 18 19 20 21 22 23 24 25 26 27 28
000
FTUS45 KBYZ 240215 AAA
TAFMLS
TAF AMD
KMLS 240215Z 2402/2424 05008KT P6SM BKN025 OVC035
     FM240300 12006KT P6SM VCSH SCT011 BKN025
     FM240700 08006KT P6SM VCSH SCT006 OVC014
     FM241100 08006KT P6SM VCFG BKN006
     FM241500 07006KT P6SM VCFG BKN015
     FM241800 06006KT P6SM VCSH BKN030=

USA.gov is the U.S. government's official web portal to all federal, state and local government web resources and services.